Etusivu
METAR-TAF:

METAR-TAF

Lentoasemat :

Richard B. Russell Airport

Rome, Georgia, Yhdysvallat

Leveyspiiri: 34-20-52N, Pituuspiiri: 085-09-40W, korkeus merenpinnasta: 194 m

Tämänhetkinen sää

Tämä raportti tehtiin 27 minuuttia sitten, kello 00.19 UTC
Tuuli 3 kn pohjoisesta
Lämpötila 5°C
Kosteus 93%
Ilmanpaine 1025 hPa
Näkyvyys: 6.4 km
Hajonneita pilviä 500 ft:n korkeudessa
Hajonneita pilviä 1000 ft:n korkeudessa
Pilvistä 2800 ft:n korkeudessa
heikkoa sadetta, utua

METAR: KRMG 200019Z AUTO 01003KT 4SM -RA BR BKN005 BKN010 OVC028 05/04 A3028 RMK AO2 P0007 T00500039

Aika: 19:46 (00:46 UTC)


TAF: puuttuu

Säähavainnot ja -ennusteet yli 4000 lentoasemalta (METAR- ja TAF-raportit).

Käytössä olevat sääasemat on merkitty karttaan keltaisilla ja punaisilla pisteillä.

Aseta hiiri pisteen päälle nähdäksesi sääaseman nimen.

Klikkaa sitten nähdäksesi säähavainnot ja -ennusteet.

Kartan vaihtaminen: klikkaa mustalla rastilla varustettuja vihreitä pisteitä, niin voit zoomata sisään; viivalla varustettua vihreää pistettä, niin voit zoomata ulos tai vihreitä nuolia, niin pääset viereisille kartoille.


METAR-TAF: